Goloson International Airport
MHLC : now visible

Airfield :











YOU CAN JOIN US ON...

 
LOGIN :

Register | Disclaimer

   EN    FR    IT 

 









Legend :    VFR   Marginal VFR   IFR   Intensive IFR   Very Intensive IFR
Visi :
Ceiling :
>= 8 km
>= 3000ft
5 to 8 km
1000 to 3000 ft
1500m to 5 km
500 to 1000 ft
800 to 1500m
200 to 500 ft
< 800m
< 200 ft
Symbols :   Thunderstorms  Fog  Heavy snow  Heavy precipitations  Wind > 20 kt






- Airport Elevation : 49 ft
- IATA code : LCE


MHLC - Goloson International

CURRENT METAR :
  • 220900Z 00000KT 9999 FEW028 BKN080 25/24 Q1009 A2980 NOSIG

EXPIRED METARs :
  • 220800Z VRB02KT 9999 FEW025 BKN080 25/24 Q1009 A2980 NOSIG
  • 220700Z 00000KT 9999 FEW025 BKN080 26/24 Q1009 A2980 NOSIG
  • 220600Z VRB02KT 9999 FEW026 BKN080 26/24 Q1010 A2983 NOSIG

TAF TAF MHLC
Valid from the 22 at 06:00 until the 23 at 06:00 UTC


220500Z 2206/2306 VRB04KT SCT030 TX32/2219Z TN24/2212Z
BECMG 2215/2217 04007KT
TEMPO 2222/2304 5000 SHRA SCT032 FEW034CB TAF MHRO 220500Z 2206/2306 12014KT 9999 SCT026 TX32/2219Z TN28/2212Z
MHTG FIR / North America



MET'MAP, your aeronautical weather chart ! - Copyright ORBIFLY December 2007 - Disclaimer

ORBIFLY MET'MAP TEAM :

Programming & Development : Alexandra Zaïnal
Original concept : Baudouin d'Aumeries
Technical & hardware support : Manuel Goepfert
Assistance : Marc-Olivier Méhu




SOURCES & CREDITS :

   NOAA       Earth
Advisory